Flight Track Log - Related Links

Times and Time Zones

All times are in EDT time to prevent confusion due to time zone crossing. See the N8163Y flight status page for this flight to view local times or setup timezone preferences in your user account.

Time Position Orientation Groundspeed Altitude Reporting Facility
EDT Latitude Longitude Course Direction KTS MPH feet Rate Location/Type
Wed 07:16:14 PM 45.1656 -93.2186 337° Northwest 158 182 1,400  Level FAA TRACON SMA TRACON (SMA)
Wed 07:16:33 PM 45.1725 -93.2228 338° Northwest 92 106 1,600 769 Climbing FAA TRACON SMA TRACON (SMA)
Wed 07:16:53 PM 45.1794 -93.2267 341° North 87 100 1,900 450 Climbing FAA TRACON SMA TRACON (SMA)
Wed 07:17:13 PM 45.1872 -93.2306 340° North 92 106 1,900 300 Level FAA TRACON SMA TRACON (SMA)
Wed 07:17:33 PM 45.1964 -93.2353 336° Northwest 95 109 2,100 300 Climbing FAA TRACON SMA TRACON (SMA)
Wed 07:17:53 PM 45.2039 -93.2400 327° Northwest 98 113 2,100 439 Level FAA TRACON SMA TRACON (SMA)
Wed 07:18:14 PM 45.2125 -93.2481 303° West 101 116 2,400 732 Climbing FAA TRACON SMA TRACON (SMA)
Wed 07:18:34 PM 45.2164 -93.2567 295° West 95 109 2,600 750 Climbing FAA TRACON SMA TRACON (SMA)
Wed 07:18:54 PM 45.2200 -93.2678 307° West 96 110 2,900 462 Climbing FAA TRACON SMA TRACON (SMA)
Wed 07:19:13 PM 45.2244 -93.2761 298° West 96 110 2,900 154 Level FAA TRACON SMA TRACON (SMA)
Wed 07:19:33 PM 45.2292 -93.2889 298° West 94 108 3,000 300 Climbing FAA TRACON SMA TRACON (SMA)
Wed 07:19:53 PM 45.2328 -93.2983 301° West 94 108 3,100 450 Climbing FAA TRACON SMA TRACON (SMA)
Wed 07:20:13 PM 45.2369 -93.3083 305° West 92 106 3,300 450 Climbing FAA TRACON SMA TRACON (SMA)
Wed 07:20:33 PM 45.2431 -93.3208 353° North 100 115 3,400 450 Climbing FAA TRACON SMA TRACON (SMA)
Wed 07:20:53 PM 45.2514 -93.3222 353° North 102 117 3,600 732 Climbing FAA TRACON SMA TRACON (SMA)
Wed 07:21:14 PM 45.2614 -93.3239 359° North 97 112 3,900 439 Climbing FAA TRACON SMA TRACON (SMA)
Wed 07:21:34 PM 45.2700 -93.3242 North 97 112 3,900 150 Level FAA TRACON SMA TRACON (SMA)
Wed 07:21:54 PM 45.2786 -93.3231 359° North 100 115 4,000 308 Climbing FAA TRACON SMA TRACON (SMA)
Wed 07:22:13 PM 45.2875 -93.3233 360° North 103 119 4,100 154 Climbing FAA TRACON SMA TRACON (SMA)
Wed 07:22:33 PM 45.2992 -93.3233 358° North 110 127 4,100  Level FAA TRACON SMA TRACON (SMA)
Wed 07:22:53 PM 45.3086 -93.3239 North 111 128 4,100  Level FAA TRACON SMA TRACON (SMA)
Wed 07:23:13 PM 45.3186 -93.3233 355° North 114 131 4,100  Level FAA TRACON SMA TRACON (SMA)
Wed 07:23:33 PM 45.3306 -93.3247 North 113 130 4,100  Level FAA TRACON SMA TRACON (SMA)
Wed 07:23:53 PM 45.3403 -93.3239 359° North 114 131 4,100  Level FAA TRACON SMA TRACON (SMA)
Wed 07:24:13 PM 45.3528 -93.3242 360° North 116 133 4,100  Level FAA TRACON SMA TRACON (SMA)
Wed 07:24:33 PM 45.3622 -93.3242 360° North 114 131 4,100  Level FAA TRACON SMA TRACON (SMA)
Wed 07:24:53 PM 45.3717 -93.3242 357° North 111 128 4,100 305 Level FAA TRACON SMA TRACON (SMA)
Wed 07:25:32 PM 45.3919 -93.3256 356° North 106 122 4,400 508 Climbing FAA TRACON SMA TRACON (SMA)
Wed 07:25:52 PM 45.4011 -93.3264 357° North 106 122 4,600 293 Climbing FAA TRACON SMA TRACON (SMA)
Wed 07:26:13 PM 45.4119 -93.3272 353° North 102 117 4,600  Level FAA TRACON SMA TRACON (SMA)
Wed 07:26:33 PM 45.4203 -93.3286 357° North 100 115 4,600 462 Level FAA TRACON SMA TRACON (SMA)
Wed 07:26:52 PM 45.4289 -93.3292 North 100 115 4,900 750 Climbing FAA TRACON SMA TRACON (SMA)
Wed 07:27:13 PM 45.4392 -93.3275 359° North 96 110 5,100 293 Climbing FAA TRACON SMA TRACON (SMA)
Wed 07:27:33 PM 45.4472 -93.3278 North 95 109 5,100  Level FAA TRACON SMA TRACON (SMA)
Wed 07:27:53 PM 45.4553 -93.3275 North 93 107 5,100 308 Level FAA TRACON SMA TRACON (SMA)
Wed 07:28:12 PM 45.4633 -93.3267 353° North 95 109 5,300 450 Climbing FAA TRACON SMA TRACON (SMA)
Wed 07:28:33 PM 45.4733 -93.3283 North 92 106 5,400 300 Climbing FAA TRACON SMA TRACON (SMA)
Wed 07:28:52 PM 45.4814 -93.3272 North 95 109 5,500 308 Climbing FAA TRACON SMA TRACON (SMA)
Wed 07:29:12 PM 45.4894 -93.3258 359° North 95 109 5,600 146 Climbing FAA TRACON SMA TRACON (SMA)
Wed 07:29:33 PM 45.4994 -93.3261 North 95 109 5,600 450 Level FAA TRACON SMA TRACON (SMA)
Wed 07:29:52 PM 45.5075 -93.3258 North 94 108 5,900 450 Climbing FAA TRACON SMA TRACON (SMA)
Wed 07:30:13 PM 45.5178 -93.3247 North 96 110 5,900  Level FAA TRACON SMA TRACON (SMA)
Wed 07:30:32 PM 45.5258 -93.3231 359° North 96 110 5,900  Level FAA TRACON SMA TRACON (SMA)
Wed 07:30:52 PM 45.5347 -93.3233 355° North 99 114 5,900  Level FAA TRACON SMA TRACON (SMA)
Wed 07:31:13 PM 45.5458 -93.3247 353° North 105 121 5,900  Level FAA TRACON SMA TRACON (SMA)
Wed 07:31:32 PM 45.5542 -93.3261 355° North 102 117 5,900  Level FAA TRACON SMA TRACON (SMA)
Wed 07:31:52 PM 45.5631 -93.3272 360° North 103 119 5,900  Level FAA TRACON SMA TRACON (SMA)
Wed 07:32:13 PM 45.5744 -93.3272 North 103 119 5,900  Level FAA TRACON SMA TRACON (SMA)
Wed 07:32:32 PM 45.5831 -93.3269 354° North 102 117 5,900  Level FAA TRACON SMA TRACON (SMA)
Wed 07:32:53 PM 45.5919 -93.3283 355° North 102 117 5,900  Level FAA TRACON SMA TRACON (SMA)
Wed 07:33:13 PM 45.6028 -93.3297 360° North 102 117 5,900  Level FAA TRACON SMA TRACON (SMA)
Wed 07:33:32 PM 45.6114 -93.3297 North 101 116 5,900 150 Level FAA TRACON SMA TRACON (SMA)
Wed 07:33:53 PM 45.6203 -93.3289 360° North 103 119 6,000 150 Climbing FAA TRACON SMA TRACON (SMA)
Wed 07:34:12 PM 45.6314 -93.3289 347° North 103 119 6,000  Level FAA TRACON SMA TRACON (SMA)
Wed 07:34:32 PM 45.6400 -93.3317 North 103 119 6,000  Level FAA TRACON SMA TRACON (SMA)
Wed 07:34:52 PM 45.6489 -93.3311 346° North 103 119 6,000  Level FAA TRACON SMA TRACON (SMA)
Wed 07:35:13 PM 45.6575 -93.3342 North 102 117 6,000  Level FAA TRACON SMA TRACON (SMA)
Wed 07:35:33 PM 45.6686 -93.3319 346° North 104 120 6,000  Level FAA TRACON SMA TRACON (SMA)
Wed 07:35:53 PM 45.6772 -93.3350 360° North 102 117 6,000  Level FAA TRACON SMA TRACON (SMA)
Wed 07:36:12 PM 45.6881 -93.3350 356° North 102 117 6,000  Level FAA TRACON SMA TRACON (SMA)
Wed 07:36:32 PM 45.6967 -93.3358 North 102 117 6,000  Level FAA TRACON SMA TRACON (SMA)
Wed 07:36:53 PM 45.7053 -93.3353 North 100 115 6,000  Level FAA TRACON SMA TRACON (SMA)
Wed 07:37:12 PM 45.7161 -93.3347 355° North 101 116 6,000 -150 Level FAA TRACON SMA TRACON (SMA)
Wed 07:37:33 PM 45.7247 -93.3358 North 101 116 5,900  Descending FAA TRACON SMA TRACON (SMA)
Wed 07:37:52 PM 45.7339 -93.3350 North 103 119 6,000  Climbing FAA TRACON SMA TRACON (SMA)
Wed 07:38:12 PM 45.7425 -93.3344 355° North 101 116 5,900 -146 Descending FAA TRACON SMA TRACON (SMA)
Wed 07:38:33 PM 45.7533 -93.3358 North 102 117 5,900  Level FAA TRACON SMA TRACON (SMA)
Wed 07:38:52 PM 45.7622 -93.3350 356° North 101 116 5,900  Level FAA TRACON SMA TRACON (SMA)
Wed 07:39:12 PM 45.7708 -93.3358 North 103 119 5,900  Level FAA TRACON SMA TRACON (SMA)
Wed 07:39:33 PM 45.7817 -93.3353 North 101 116 5,900  Level FAA TRACON SMA TRACON (SMA)
Wed 07:39:52 PM 45.7903 -93.3342 North 102 117 5,900  Level FAA TRACON SMA TRACON (SMA)
Wed 07:40:12 PM 45.7989 -93.3336 11° North 102 117 5,900  Level FAA TRACON SMA TRACON (SMA)
Wed 07:40:33 PM 45.8100 -93.3306 356° North 104 120 5,900 150 Level FAA TRACON SMA TRACON (SMA)
Wed 07:40:52 PM 45.8183 -93.3314 347° North 104 120 6,000 154 Climbing FAA TRACON SMA TRACON (SMA)
Wed 07:41:12 PM 45.8283 -93.3347 North 99 114 6,000  Level FAA TRACON SMA TRACON (SMA)
Wed 07:41:33 PM 45.8369 -93.3333 355° North 98 113 6,000 -150 Level FAA TRACON SMA TRACON (SMA)
Wed 07:41:52 PM 45.8456 -93.3344 North 101 116 5,900 -154 Descending FAA TRACON SMA TRACON (SMA)
Wed 07:42:12 PM 45.8544 -93.3336 North 103 119 5,900  Level FAA TRACON SMA TRACON (SMA)
Wed 07:42:33 PM 45.8658 -93.3325 346° North 104 120 5,900  Level FAA TRACON SMA TRACON (SMA)
Wed 07:42:52 PM 45.8744 -93.3356 356° North 105 121 5,900  Level FAA TRACON SMA TRACON (SMA)
Wed 07:43:12 PM 45.8856 -93.3367 303° West 104 120 5,900  Level FAA TRACON SMA TRACON (SMA)
Wed 07:43:28 PM 45.8914 -93.3494 360° North 102 117 5,900  Level Minneapolis Center
Wed 07:44:27 PM 45.9206 -93.3494 North 102 117 5,900 50 Level Minneapolis Center
Wed 07:45:28 PM 45.9475 -93.3464 360° North 102 117 6,000 50 Climbing Minneapolis Center
Wed 07:46:28 PM 45.9767 -93.3464 356° North 102 117 6,000  Level Minneapolis Center
Wed 07:47:28 PM 46.0058 -93.3494 355° North 102 117 6,000  Level Minneapolis Center
Wed 07:48:28 PM 46.0289 -93.3522 North 102 117 6,000  Level Minneapolis Center
Wed 07:49:28 PM 46.0581 -93.3464 360° North 102 117 6,000  Level Minneapolis Center
Wed 07:50:28 PM 46.0872 -93.3461 356° North 102 117 6,000  Level Minneapolis Center
Wed 07:51:28 PM 46.1164 -93.3492 North 102 117 6,000  Level Minneapolis Center
Wed 07:52:28 PM 46.1456 -93.3461 356° North 102 117 6,000 -50 Level Minneapolis Center
Wed 07:53:28 PM 46.1747 -93.3492 360° North 102 117 5,900 -50 Descending Minneapolis Center
Wed 07:54:28 PM 46.2039 -93.3492 360° North 102 117 5,900  Level Minneapolis Center
Wed 07:55:28 PM 46.2350 -93.3489 360° North 102 117 5,900  Level Minneapolis Center
Wed 07:56:28 PM 46.2642 -93.3489 360° North 102 117 5,900  Level Minneapolis Center
Wed 07:57:28 PM 46.2933 -93.3489 356° North 102 117 5,900  Level Minneapolis Center
Wed 07:58:28 PM 46.3225 -93.3519 360° North 102 117 5,900  Level Minneapolis Center
Wed 07:59:28 PM 46.3517 -93.3517 360° North 102 117 5,900 50 Level Minneapolis Center
Wed 08:00:28 PM 46.3808 -93.3517 360° North 102 117 6,000  Climbing Minneapolis Center
Wed 08:01:28 PM 46.4081 -93.3517 360° North 102 117 5,900 -50 Descending Minneapolis Center
Wed 08:02:28 PM 46.4392 -93.3517 North 102 117 5,900  Level Minneapolis Center
Wed 08:03:28 PM 46.4706 -93.3486 360° North 102 117 5,900  Level Minneapolis Center
Wed 08:04:28 PM 46.4997 -93.3486 352° North 102 117 5,900  Level Minneapolis Center
Wed 08:05:28 PM 46.5286 -93.3547 360° North 102 117 5,900  Level Minneapolis Center
Wed 08:06:28 PM 46.5581 -93.3544 356° North 102 117 5,900  Level Minneapolis Center
Wed 08:07:28 PM 46.5869 -93.3575 North 102 117 5,900  Level Minneapolis Center
Wed 08:08:28 PM 46.6161 -93.3544 360° North 102 117 5,900 50 Level Minneapolis Center
Wed 08:09:28 PM 46.6475 -93.3544 356° North 102 117 6,000 50 Climbing Minneapolis Center
Wed 08:10:28 PM 46.6767 -93.3575 North 102 117 6,000  Level Minneapolis Center
Wed 08:11:28 PM 46.7058 -93.3544 356° North 102 117 6,000  Level Minneapolis Center
Wed 08:12:28 PM 46.7350 -93.3572 356° North 102 117 6,000  Level Minneapolis Center
Wed 08:13:28 PM 46.7661 -93.3603 360° North 102 117 6,000  Level Minneapolis Center
Wed 08:14:28 PM 46.7953 -93.3603 356° North 102 117 6,000  Level Minneapolis Center
Wed 08:15:28 PM 46.8267 -93.3633 360° North 102 117 6,000  Level Minneapolis Center
Wed 08:16:28 PM 46.8558 -93.3631 360° North 102 117 6,000  Level Minneapolis Center
Wed 08:17:28 PM 46.8850 -93.3631 356° North 102 117 6,000  Level Minneapolis Center
Wed 08:18:28 PM 46.9161 -93.3661 360° North 102 117 6,000  Level Minneapolis Center
Wed 08:19:28 PM 46.9475 -93.3661 360° North 102 117 6,000 -50 Level Minneapolis Center
Wed 08:20:28 PM 46.9767 -93.3661 360° North 102 117 5,900  Descending Minneapolis Center
Wed 08:21:28 PM 47.0078 -93.3661 North 102 117 6,000 50 Climbing Minneapolis Center
Wed 08:22:28 PM 47.0389 -93.3631 356° North 102 117 6,000  Level Minneapolis Center
Wed 08:23:28 PM 47.0681 -93.3658 360° North 102 117 6,000  Level Minneapolis Center
Wed 08:24:28 PM 47.0994 -93.3658 356° North 102 117 6,000 -50 Level Minneapolis Center
Wed 08:25:28 PM 47.1264 -93.3689 360° North 102 117 5,900  Descending Minneapolis Center
Wed 08:26:28 PM 47.1578 -93.3689 356° North 102 117 6,000 50 Climbing Minneapolis Center
Wed 08:27:28 PM 47.1889 -93.3719 360° North 102 117 6,000  Level Minneapolis Center
Wed 08:28:27 PM 47.2203 -93.3719 356° North 102 117 6,000  Level Minneapolis Center
Wed 08:29:28 PM 47.2494 -93.3750 360° North 102 117 6,000  Level Minneapolis Center
Wed 08:30:28 PM 47.2806 -93.3750 360° North 102 117 6,000 -50 Level Minneapolis Center
Wed 08:31:28 PM 47.3119 -93.3747 360° North 102 117 5,900 -50 Descending Minneapolis Center
Wed 08:32:28 PM 47.3431 -93.3747 360° North 102 117 5,900  Level Minneapolis Center
Wed 08:33:28 PM 47.3722 -93.3747 356° North 102 117 5,900 50 Level Minneapolis Center
Wed 08:34:28 PM 47.4014 -93.3778 360° North 102 117 6,000 50 Climbing Minneapolis Center
Wed 08:35:28 PM 47.4306 -93.3778 360° North 102 117 6,000  Level Minneapolis Center
Wed 08:36:28 PM 47.4617 -93.3778 360° North 102 117 6,000  Level Minneapolis Center
Wed 08:37:28 PM 47.4908 -93.3778 360° North 102 117 6,000  Level Minneapolis Center
Wed 08:38:28 PM 47.5222 -93.3778 356° North 102 117 6,000  Level Minneapolis Center
Wed 08:39:28 PM 47.5514 -93.3808 360° North 102 117 6,000 50 Level Minneapolis Center
Wed 08:40:28 PM 47.5806 -93.3806 360° North 102 117 6,100 50 Climbing Minneapolis Center
Wed 08:41:28 PM 47.6117 -93.3806 North 102 117 6,100  Level Minneapolis Center
Wed 08:42:28 PM 47.6408 -93.3775 360° North 102 117 6,100 -50 Level Minneapolis Center
Wed 08:43:28 PM 47.6719 -93.3775 360° North 102 117 6,000  Descending Minneapolis Center
Wed 08:44:28 PM 47.7011 -93.3775 356° North 102 117 6,100 50 Climbing Minneapolis Center
Wed 08:45:28 PM 47.7303 -93.3806 356° North 102 117 6,100  Level Minneapolis Center
Wed 08:46:28 PM 47.7617 -93.3836 360° North 102 117 6,100  Level Minneapolis Center
Wed 08:47:28 PM 47.7908 -93.3836 356° North 102 117 6,100  Level Minneapolis Center
Wed 08:48:28 PM 47.8200 -93.3867 360° North 102 117 6,100  Level Minneapolis Center
Wed 08:49:27 PM 47.8492 -93.3867 356° North 102 117 6,100  Level Minneapolis Center
Wed 08:50:28 PM 47.8803 -93.3897 360° North 102 117 6,100  Level Minneapolis Center
Wed 08:51:28 PM 47.9094 -93.3897 360° North 102 117 6,100  Level Minneapolis Center
Wed 08:52:28 PM 47.9386 -93.3894 360° North 102 117 6,100  Level Minneapolis Center
Wed 08:53:28 PM 47.9656 -93.3894 356° North 102 117 6,100  Level Minneapolis Center
Wed 08:54:28 PM 47.9947 -93.3925 360° North 102 117 6,100 -50 Level Minneapolis Center
Wed 08:55:28 PM 48.0261 -93.3925 356° North 102 117 6,000 -50 Descending Minneapolis Center
Wed 08:56:28 PM 48.0553 -93.3956 360° North 102 117 6,000 -50 Level Minneapolis Center
Wed 08:57:28 PM 48.0844 -93.3956 360° North 102 117 5,900 -50 Descending Minneapolis Center
Wed 08:58:28 PM 48.1156 -93.3956 360° North 102 117 5,900 50 Level Minneapolis Center
Wed 08:59:28 PM 48.1425 -93.3956 360° North 102 117 6,000 -200 Climbing Minneapolis Center
Wed 09:00:28 PM 48.1739 -93.3956 356° North 102 117 5,500 -350 Descending Minneapolis Center
Wed 09:01:28 PM 48.2072 -93.3986 360° North 107 123 5,300 -250 Descending Minneapolis Center
Wed 09:02:28 PM 48.2406 -93.3986 360° North 107 123 5,000 -400 Descending Minneapolis Center
Wed 09:03:28 PM 48.2758 -93.3986 357° North 112 129 4,500 -300 Descending Minneapolis Center
Wed 09:04:28 PM 48.3092 -93.4017 357° North 117 135 4,400 -250 Descending Minneapolis Center
Wed 09:05:28 PM 48.3444 -93.4047 North 122 140 4,000 -200 Descending Minneapolis Center
Wed 09:06:28 PM 48.3778 -93.4017 360° North 122 140 4,000  Level Minneapolis Center
Wed 09:07:28 PM 48.4111 -93.4017 360° North 122 140 4,000  Level Minneapolis Center

Login

Don't have an account? Register now (free) for customized features, flight alerts, and more!